CFG2369 VTSP-EDDF
Flight info
| Callsign | CFG2369 |
|---|---|
| Flight time | N/A |
| Altitude | 34000 |
| Route | UBNEN L645 MAPSO P628 KAGUL P628 NIKOT P628 RK G202 ZB L750 RANAH A846 RUBAD B475 DOLOS B449 MAMED P130 ARBAT P130 REBLO UM11 ARLAT DCT CRM UL746 ODERO DCT OPT DCT IRLOX DCT EMPOS DCT NEPOT DCT DEGET DCT VAJDI DCT DITIS DCT RAPET T170 GAPLA T178 KERAX |
| Aircraft | A339/H-SDE1E2E3GHIJ1J4J7LM1OP2RVWXYZ/LB1D1 |
Departure
| Time | 2026-05-06 07:24 |
|---|---|
| Airport | Phuket International Airport (VTSP) |
Arrival
| Time | N/A |
|---|---|
| Airport | Frankfurt Main Airport (EDDF) |
| Time | Latitude | Longitude | Altitude | Speed | Heading |
|---|---|---|---|---|---|
| 2026-05-06 07:02 | 8.10585 | 98.30458 | 33 ft | 0 kts | 105° |
| 2026-05-06 07:16 | 8.10590 | 98.30441 | 33 ft | 4 kts | 94° |
| 2026-05-06 07:16 | 8.10590 | 98.30415 | 32 ft | 4 kts | 71° |
| 2026-05-06 07:16 | 8.10580 | 98.30390 | 31 ft | 4 kts | 60° |
| 2026-05-06 07:16 | 8.10574 | 98.30380 | 32 ft | 0 kts | 61° |
| 2026-05-06 07:20 | 8.10576 | 98.30381 | 32 ft | 0 kts | 57° |
| 2026-05-06 07:20 | 8.10580 | 98.30382 | 32 ft | 1 kts | 40° |
| 2026-05-06 07:20 | 8.10586 | 98.30382 | 32 ft | 1 kts | 21° |
| 2026-05-06 07:20 | 8.10596 | 98.30381 | 32 ft | 3 kts | 3° |
| 2026-05-06 07:21 | 8.10623 | 98.30382 | 32 ft | 5 kts | 3° |
| 2026-05-06 07:21 | 8.10666 | 98.30390 | 32 ft | 8 kts | 11° |
| 2026-05-06 07:21 | 8.10724 | 98.30384 | 32 ft | 9 kts | 339° |
| 2026-05-06 07:21 | 8.10793 | 98.30360 | 32 ft | 12 kts | 350° |
| 2026-05-06 07:22 | 8.10877 | 98.30374 | 32 ft | 13 kts | 14° |
| 2026-05-06 07:22 | 8.10961 | 98.30395 | 32 ft | 12 kts | 14° |
| 2026-05-06 07:22 | 8.11030 | 98.30386 | 32 ft | 9 kts | 317° |
| 2026-05-06 07:22 | 8.11080 | 98.30348 | 32 ft | 8 kts | 344° |
| 2026-05-06 07:23 | 8.11136 | 98.30347 | 32 ft | 8 kts | 355° |
| 2026-05-06 07:23 | 8.11189 | 98.30348 | 32 ft | 6 kts | 17° |
| 2026-05-06 07:23 | 8.11199 | 98.30379 | 32 ft | 4 kts | 84° |
| 2026-05-06 07:23 | 8.11202 | 98.30429 | 33 ft | 19 kts | 86° |
| 2026-05-06 07:24 | 8.11238 | 98.30808 | 34 ft | 89 kts | 85° |
| 2026-05-06 07:24 | 8.11315 | 98.31637 | 49 ft | 145 kts | 85° |
| 2026-05-06 07:24 | 8.11428 | 98.32757 | 288 ft | 167 kts | 83° |
| 2026-05-06 07:24 | 8.11549 | 98.33919 | 876 ft | 167 kts | 83° |
| 2026-05-06 07:25 | 8.11678 | 98.35148 | 1227 ft | 186 kts | 84° |
| 2026-05-06 07:25 | 8.11827 | 98.36495 | 1648 ft | 197 kts | 84° |
| 2026-05-06 07:25 | 8.11995 | 98.37887 | 2050 ft | 207 kts | 84° |
| 2026-05-06 07:25 | 8.12161 | 98.39397 | 2232 ft | 226 kts | 85° |
| 2026-05-06 07:26 | 8.12298 | 98.41033 | 2377 ft | 242 kts | 86° |
| 2026-05-06 07:26 | 8.12438 | 98.42779 | 2618 ft | 255 kts | 85° |
| 2026-05-06 07:26 | 8.12592 | 98.44570 | 3065 ft | 257 kts | 85° |
| 2026-05-06 07:26 | 8.12754 | 98.46376 | 3529 ft | 258 kts | 85° |
| 2026-05-06 07:27 | 8.12918 | 98.48182 | 3955 ft | 261 kts | 85° |
| 2026-05-06 07:27 | 8.13085 | 98.50016 | 4432 ft | 261 kts | 85° |
| 2026-05-06 07:27 | 8.13254 | 98.51848 | 4852 ft | 265 kts | 85° |
| 2026-05-06 07:27 | 8.13425 | 98.53705 | 5304 ft | 267 kts | 85° |
| 2026-05-06 07:28 | 8.13597 | 98.55579 | 5762 ft | 268 kts | 85° |
| 2026-05-06 07:28 | 8.13695 | 98.57458 | 6181 ft | 270 kts | 95° |
| 2026-05-06 07:28 | 8.11861 | 98.60672 | 6940 ft | 277 kts | 145° |
| 2026-05-06 07:29 | 8.10074 | 98.61398 | 7342 ft | 282 kts | 169° |
| 2026-05-06 07:29 | 8.08110 | 98.61470 | 7763 ft | 285 kts | 179° |
| 2026-05-06 07:29 | 8.06118 | 98.61477 | 8145 ft | 287 kts | 178° |
| 2026-05-06 07:29 | 8.04143 | 98.61521 | 8588 ft | 289 kts | 176° |
| 2026-05-06 07:30 | 8.02127 | 98.61587 | 9015 ft | 290 kts | 176° |
| 2026-05-06 07:30 | 8.00108 | 98.61659 | 9459 ft | 291 kts | 176° |
| 2026-05-06 07:30 | 7.98069 | 98.61735 | 9840 ft | 295 kts | 176° |
| 2026-05-06 07:30 | 7.96010 | 98.61761 | 10171 ft | 300 kts | 183° |
| 2026-05-06 07:31 | 7.93966 | 98.61162 | 10285 ft | 316 kts | 207° |
| 2026-05-06 07:31 | 7.92232 | 98.59750 | 10444 ft | 328 kts | 230° |
| 2026-05-06 07:31 | 7.91144 | 98.57723 | 10801 ft | 333 kts | 253° |
| 2026-05-06 07:31 | 7.90827 | 98.55394 | 11067 ft | 341 kts | 269° |
| 2026-05-06 07:32 | 7.90895 | 98.52962 | 11178 ft | 353 kts | 272° |
| 2026-05-06 07:32 | 7.90965 | 98.50457 | 11372 ft | 361 kts | 270° |
| 2026-05-06 07:32 | 7.90928 | 98.47917 | 11711 ft | 363 kts | 268° |
| 2026-05-06 07:32 | 7.90797 | 98.45376 | 12119 ft | 364 kts | 266° |
| 2026-05-06 07:33 | 7.90613 | 98.42820 | 12498 ft | 366 kts | 265° |
| 2026-05-06 07:33 | 7.90407 | 98.40255 | 12872 ft | 369 kts | 265° |
| 2026-05-06 07:33 | 7.90196 | 98.37672 | 13228 ft | 371 kts | 265° |
| 2026-05-06 07:33 | 7.89986 | 98.35071 | 13608 ft | 373 kts | 265° |
| 2026-05-06 07:34 | 7.89774 | 98.32456 | 13915 ft | 376 kts | 265° |
| 2026-05-06 07:34 | 7.89561 | 98.29818 | 14270 ft | 377 kts | 265° |
| 2026-05-06 07:34 | 7.89347 | 98.27177 | 14630 ft | 379 kts | 265° |
| 2026-05-06 07:34 | 7.89136 | 98.24515 | 14931 ft | 381 kts | 265° |
| 2026-05-06 07:35 | 7.88920 | 98.21840 | 15238 ft | 383 kts | 265° |
| 2026-05-06 07:35 | 7.88704 | 98.19159 | 15588 ft | 384 kts | 265° |
| 2026-05-06 07:35 | 7.88488 | 98.16461 | 15881 ft | 387 kts | 265° |
| 2026-05-06 07:35 | 7.88272 | 98.13753 | 16204 ft | 389 kts | 265° |
| 2026-05-06 07:36 | 7.88058 | 98.11028 | 16510 ft | 390 kts | 265° |
| 2026-05-06 07:36 | 7.88106 | 98.08286 | 16736 ft | 393 kts | 280° |
| 2026-05-06 07:36 | 7.88936 | 98.05669 | 17075 ft | 393 kts | 298° |
| 2026-05-06 07:36 | 7.90462 | 98.03396 | 17364 ft | 393 kts | 310° |
| 2026-05-06 07:37 | 7.92213 | 98.01260 | 17625 ft | 396 kts | 310° |
| 2026-05-06 07:37 | 7.93959 | 97.99107 | 17959 ft | 397 kts | 310° |
| 2026-05-06 07:37 | 7.95695 | 97.96935 | 18233 ft | 399 kts | 310° |
| 2026-05-06 07:37 | 7.97441 | 97.94752 | 18462 ft | 401 kts | 309° |
| 2026-05-06 07:38 | 7.99193 | 97.92553 | 18700 ft | 403 kts | 309° |
| 2026-05-06 07:38 | 8.00958 | 97.90334 | 18919 ft | 406 kts | 309° |
| 2026-05-06 07:38 | 8.02729 | 97.88110 | 19185 ft | 407 kts | 309° |
| 2026-05-06 07:38 | 8.04485 | 97.85914 | 19499 ft | 407 kts | 309° |
| 2026-05-06 07:39 | 8.06262 | 97.83686 | 19793 ft | 408 kts | 309° |
| 2026-05-06 07:39 | 8.07361 | 97.82100 | 19943 ft | 410 kts | 300° |
| 2026-05-06 07:39 | 8.08671 | 97.78511 | 20176 ft | 415 kts | 279° |
| 2026-05-06 07:39 | 8.08811 | 97.75620 | 20520 ft | 414 kts | 266° |
| 2026-05-06 07:40 | 8.08627 | 97.72716 | 20722 ft | 417 kts | 266° |
| 2026-05-06 07:40 | 8.08494 | 97.70741 | 20912 ft | 418 kts | 265° |
| 2026-05-06 07:40 | 8.08246 | 97.66856 | 21287 ft | 419 kts | 266° |
| 2026-05-06 07:40 | 8.08129 | 97.64869 | 21459 ft | 420 kts | 266° |
| 2026-05-06 07:41 | 8.07969 | 97.61965 | 21757 ft | 421 kts | 266° |
| 2026-05-06 07:41 | 8.07813 | 97.59001 | 21975 ft | 424 kts | 266° |
| 2026-05-06 07:41 | 8.07659 | 97.56018 | 22176 ft | 427 kts | 266° |
| 2026-05-06 07:41 | 8.07505 | 97.53027 | 22524 ft | 427 kts | 266° |
| 2026-05-06 07:42 | 8.07345 | 97.50029 | 22805 ft | 428 kts | 266° |
| 2026-05-06 07:42 | 8.07183 | 97.47026 | 23052 ft | 431 kts | 266° |
| 2026-05-06 07:42 | 8.07024 | 97.44001 | 23268 ft | 433 kts | 266° |
| 2026-05-06 07:42 | 8.06868 | 97.40955 | 23508 ft | 434 kts | 266° |
| 2026-05-06 07:43 | 8.06705 | 97.37910 | 23781 ft | 435 kts | 266° |
| 2026-05-06 07:43 | 8.06541 | 97.34854 | 23990 ft | 437 kts | 266° |
| 2026-05-06 07:43 | 8.06377 | 97.31785 | 24181 ft | 439 kts | 266° |
| 2026-05-06 07:43 | 8.06211 | 97.28695 | 24375 ft | 442 kts | 266° |
| 2026-05-06 07:44 | 8.06055 | 97.25602 | 24641 ft | 442 kts | 268° |
| 2026-05-06 07:44 | 8.06306 | 97.22513 | 24863 ft | 443 kts | 281° |
| 2026-05-06 07:44 | 8.07192 | 97.19526 | 25011 ft | 446 kts | 294° |
| 2026-05-06 07:44 | 8.08660 | 97.16782 | 25284 ft | 445 kts | 302° |
| 2026-05-06 07:45 | 8.10300 | 97.14109 | 25392 ft | 450 kts | 302° |
| 2026-05-06 07:45 | 8.11931 | 97.11422 | 25699 ft | 448 kts | 302° |
| 2026-05-06 07:45 | 8.13559 | 97.08729 | 25866 ft | 452 kts | 302° |
| 2026-05-06 07:45 | 8.15195 | 97.06014 | 26056 ft | 453 kts | 302° |
| 2026-05-06 07:46 | 8.16831 | 97.03296 | 26313 ft | 453 kts | 302° |
| 2026-05-06 07:46 | 8.18463 | 97.00575 | 26532 ft | 454 kts | 302° |
| 2026-05-06 07:46 | 8.20109 | 96.97836 | 26679 ft | 457 kts | 302° |
| 2026-05-06 07:46 | 8.21760 | 96.95091 | 26923 ft | 457 kts | 302° |
| 2026-05-06 07:47 | 8.23410 | 96.92345 | 27108 ft | 459 kts | 302° |
| 2026-05-06 07:47 | 8.25064 | 96.89586 | 27322 ft | 459 kts | 302° |
| 2026-05-06 07:47 | 8.26720 | 96.86819 | 27506 ft | 461 kts | 302° |
| 2026-05-06 07:47 | 8.28391 | 96.84044 | 27693 ft | 463 kts | 302° |
| 2026-05-06 07:48 | 8.30067 | 96.81260 | 27885 ft | 465 kts | 302° |
| 2026-05-06 07:48 | 8.31744 | 96.78467 | 28071 ft | 466 kts | 302° |
| 2026-05-06 07:48 | 8.33424 | 96.75663 | 28263 ft | 468 kts | 302° |
| 2026-05-06 07:48 | 8.35111 | 96.72846 | 28459 ft | 469 kts | 301° |
| 2026-05-06 07:49 | 8.36795 | 96.70019 | 28633 ft | 471 kts | 302° |
| 2026-05-06 07:49 | 8.38493 | 96.67189 | 28836 ft | 472 kts | 302° |
| 2026-05-06 07:49 | 8.40198 | 96.64353 | 29033 ft | 473 kts | 302° |
| 2026-05-06 07:49 | 8.41889 | 96.61543 | 29184 ft | 475 kts | 302° |
| 2026-05-06 07:50 | 8.43604 | 96.58688 | 29383 ft | 476 kts | 302° |
| 2026-05-06 07:50 | 8.45320 | 96.55824 | 29556 ft | 478 kts | 301° |
| 2026-05-06 07:50 | 8.47038 | 96.52943 | 29730 ft | 479 kts | 302° |
| 2026-05-06 07:50 | 8.48769 | 96.50050 | 29806 ft | 483 kts | 302° |
| 2026-05-06 07:51 | 8.52290 | 96.44184 | 29817 ft | 494 kts | 302° |
| 2026-05-06 07:51 | 8.55861 | 96.38229 | 29815 ft | 494 kts | 302° |
| 2026-05-06 07:52 | 8.59413 | 96.32279 | 29814 ft | 495 kts | 302° |
| 2026-05-06 07:52 | 8.62973 | 96.26324 | 29815 ft | 495 kts | 302° |
| 2026-05-06 07:53 | 8.66569 | 96.20314 | 29812 ft | 504 kts | 302° |
| 2026-05-06 07:53 | 8.70203 | 96.14209 | 29813 ft | 508 kts | 302° |
| 2026-05-06 07:54 | 8.73864 | 96.08077 | 29813 ft | 510 kts | 302° |
| 2026-05-06 07:54 | 8.77521 | 96.01955 | 29814 ft | 508 kts | 301° |
| 2026-05-06 07:55 | 8.81170 | 95.95830 | 29815 ft | 509 kts | 302° |
| 2026-05-06 07:55 | 8.84814 | 95.89707 | 29803 ft | 508 kts | 301° |
| 2026-05-06 07:56 | 8.88458 | 95.83591 | 29807 ft | 508 kts | 301° |
| 2026-05-06 07:56 | 8.92100 | 95.77473 | 29811 ft | 507 kts | 301° |
| 2026-05-06 07:57 | 8.95738 | 95.71364 | 29796 ft | 507 kts | 301° |
| 2026-05-06 07:57 | 8.99377 | 95.65237 | 29795 ft | 508 kts | 302° |
| 2026-05-06 07:58 | 9.02996 | 95.59143 | 29795 ft | 509 kts | 302° |
| 2026-05-06 07:58 | 9.06646 | 95.53002 | 29812 ft | 509 kts | 301° |
| 2026-05-06 07:59 | 9.10285 | 95.46857 | 29804 ft | 510 kts | 301° |
| 2026-05-06 07:59 | 9.13931 | 95.40710 | 29816 ft | 509 kts | 301° |
| 2026-05-06 08:00 | 9.17578 | 95.34572 | 29808 ft | 509 kts | 302° |
| 2026-05-06 08:00 | 9.21215 | 95.28416 | 29809 ft | 509 kts | 301° |
| 2026-05-06 08:01 | 9.24853 | 95.22257 | 29807 ft | 509 kts | 301° |
| 2026-05-06 08:01 | 9.28508 | 95.16108 | 29806 ft | 510 kts | 302° |
| 2026-05-06 08:02 | 9.32149 | 95.09949 | 29816 ft | 510 kts | 301° |
| 2026-05-06 08:02 | 9.35794 | 95.03783 | 29812 ft | 510 kts | 301° |
| 2026-05-06 08:03 | 9.39438 | 94.97627 | 29811 ft | 510 kts | 301° |
| 2026-05-06 08:03 | 9.43087 | 94.91460 | 29801 ft | 510 kts | 302° |
| 2026-05-06 08:04 | 9.46713 | 94.85314 | 29836 ft | 507 kts | 301° |
| 2026-05-06 08:04 | 9.50310 | 94.79179 | 29811 ft | 506 kts | 301° |
| 2026-05-06 08:05 | 9.53926 | 94.73076 | 29813 ft | 504 kts | 302° |
| 2026-05-06 08:05 | 9.57495 | 94.67011 | 29805 ft | 505 kts | 302° |
| 2026-05-06 08:06 | 9.61106 | 94.60920 | 29807 ft | 505 kts | 302° |
| 2026-05-06 08:06 | 9.64710 | 94.54808 | 29808 ft | 505 kts | 302° |
| 2026-05-06 08:07 | 9.68318 | 94.48698 | 29809 ft | 505 kts | 302° |
| 2026-05-06 08:07 | 9.72129 | 94.42734 | 29814 ft | 503 kts | 309° |
| 2026-05-06 08:08 | 9.77022 | 94.37708 | 29809 ft | 500 kts | 321° |
| 2026-05-06 08:08 | 9.82349 | 94.33162 | 29794 ft | 501 kts | 321° |
| 2026-05-06 08:09 | 9.87663 | 94.28580 | 29806 ft | 502 kts | 321° |
| 2026-05-06 08:09 | 9.92989 | 94.23997 | 29810 ft | 502 kts | 321° |
| 2026-05-06 08:10 | 9.98310 | 94.19401 | 29806 ft | 503 kts | 321° |
| 2026-05-06 08:10 | 10.03632 | 94.14812 | 29814 ft | 502 kts | 321° |
| 2026-05-06 08:11 | 10.08959 | 94.10223 | 29813 ft | 502 kts | 321° |
| 2026-05-06 08:11 | 10.14273 | 94.05635 | 29809 ft | 501 kts | 321° |
| 2026-05-06 08:12 | 10.19592 | 94.01045 | 29806 ft | 502 kts | 321° |
| 2026-05-06 08:12 | 10.24907 | 93.96458 | 29808 ft | 502 kts | 321° |
| 2026-05-06 08:13 | 10.30225 | 93.91864 | 29805 ft | 502 kts | 321° |
| 2026-05-06 08:13 | 10.35539 | 93.87271 | 29806 ft | 502 kts | 321° |
| 2026-05-06 08:14 | 10.40816 | 93.82708 | 29804 ft | 502 kts | 321° |
| 2026-05-06 08:14 | 10.46127 | 93.78122 | 29821 ft | 500 kts | 321° |
| 2026-05-06 08:15 | 10.51418 | 93.73538 | 29819 ft | 499 kts | 321° |
| 2026-05-06 08:15 | 10.56702 | 93.68966 | 29813 ft | 498 kts | 321° |
| 2026-05-06 08:16 | 10.61972 | 93.64392 | 29809 ft | 498 kts | 321° |
| 2026-05-06 08:16 | 10.67234 | 93.59828 | 29803 ft | 497 kts | 321° |
| 2026-05-06 08:17 | 10.72499 | 93.55267 | 29794 ft | 497 kts | 321° |
| 2026-05-06 08:17 | 10.77755 | 93.50703 | 29803 ft | 497 kts | 321° |
| 2026-05-06 08:18 | 10.83018 | 93.46143 | 29797 ft | 497 kts | 321° |
| 2026-05-06 08:18 | 10.88279 | 93.41570 | 29795 ft | 497 kts | 320° |
| 2026-05-06 08:19 | 10.93544 | 93.37003 | 29792 ft | 497 kts | 320° |
| 2026-05-06 08:19 | 10.98806 | 93.32426 | 29802 ft | 498 kts | 320° |
| 2026-05-06 08:20 | 11.04069 | 93.27835 | 29805 ft | 498 kts | 321° |
| 2026-05-06 08:20 | 11.09341 | 93.23255 | 29799 ft | 498 kts | 320° |
| 2026-05-06 08:21 | 11.14609 | 93.18663 | 29801 ft | 498 kts | 320° |
| 2026-05-06 08:21 | 11.19876 | 93.14073 | 29808 ft | 498 kts | 321° |
| 2026-05-06 08:22 | 11.25147 | 93.09485 | 29802 ft | 499 kts | 321° |
| 2026-05-06 08:22 | 11.30425 | 93.04897 | 29795 ft | 499 kts | 320° |
| 2026-05-06 08:23 | 11.35678 | 93.00302 | 29812 ft | 498 kts | 320° |
| 2026-05-06 08:23 | 11.40934 | 92.95711 | 29805 ft | 497 kts | 320° |
| 2026-05-06 08:24 | 11.46183 | 92.91122 | 29802 ft | 497 kts | 320° |
| 2026-05-06 08:24 | 11.51436 | 92.86539 | 29789 ft | 497 kts | 320° |
| 2026-05-06 08:25 | 11.56650 | 92.81981 | 29806 ft | 498 kts | 320° |
| 2026-05-06 08:25 | 11.61915 | 92.77365 | 29827 ft | 500 kts | 320° |
| 2026-05-06 08:26 | 11.66971 | 92.72522 | 29820 ft | 499 kts | 314° |
| 2026-05-06 08:26 | 11.71698 | 92.67333 | 29812 ft | 498 kts | 314° |
| 2026-05-06 08:27 | 11.76428 | 92.62167 | 29800 ft | 498 kts | 314° |
| 2026-05-06 08:27 | 11.81156 | 92.57004 | 29795 ft | 497 kts | 314° |
| 2026-05-06 08:28 | 11.85872 | 92.51846 | 29789 ft | 497 kts | 314° |
| 2026-05-06 08:28 | 11.90595 | 92.46683 | 29791 ft | 498 kts | 313° |
| 2026-05-06 08:29 | 11.95311 | 92.41511 | 29791 ft | 498 kts | 313° |
| 2026-05-06 08:29 | 11.99235 | 92.37217 | 29788 ft | 497 kts | 313° |
| 2026-05-06 08:30 | 12.03948 | 92.32046 | 29791 ft | 497 kts | 314° |
| 2026-05-06 08:30 | 12.08666 | 92.26872 | 29753 ft | 499 kts | 313° |
| 2026-05-06 08:31 | 12.13412 | 92.21669 | 29771 ft | 501 kts | 313° |
| 2026-05-06 08:31 | 12.18167 | 92.16442 | 29794 ft | 502 kts | 313° |
| 2026-05-06 08:32 | 12.22924 | 92.11207 | 29792 ft | 503 kts | 313° |
| 2026-05-06 08:32 | 12.27687 | 92.05972 | 29804 ft | 503 kts | 313° |
| 2026-05-06 08:33 | 12.32456 | 92.00729 | 29796 ft | 504 kts | 313° |
| 2026-05-06 08:33 | 12.37229 | 91.95477 | 29805 ft | 504 kts | 313° |
| 2026-05-06 08:34 | 12.44398 | 91.87594 | 29791 ft | 505 kts | 312° |
| 2026-05-06 08:35 | 12.49186 | 91.82319 | 29801 ft | 506 kts | 312° |
| 2026-05-06 08:35 | 12.53980 | 91.77028 | 29808 ft | 507 kts | 312° |
| 2026-05-06 08:36 | 12.58765 | 91.71739 | 29804 ft | 507 kts | 312° |
| 2026-05-06 08:36 | 12.63562 | 91.66445 | 29815 ft | 507 kts | 312° |
| 2026-05-06 08:37 | 12.68355 | 91.61153 | 29823 ft | 506 kts | 312° |
| 2026-05-06 08:37 | 12.73139 | 91.55868 | 29819 ft | 505 kts | 312° |
| 2026-05-06 08:38 | 12.77919 | 91.50588 | 29786 ft | 506 kts | 311° |
| 2026-05-06 08:38 | 12.82709 | 91.45287 | 29799 ft | 507 kts | 311° |
| 2026-05-06 08:39 | 12.87495 | 91.39967 | 29805 ft | 508 kts | 311° |
| 2026-05-06 08:39 | 12.92290 | 91.34656 | 29803 ft | 508 kts | 311° |
| 2026-05-06 08:40 | 12.97093 | 91.29345 | 29808 ft | 508 kts | 311° |
| 2026-05-06 08:40 | 13.01888 | 91.24019 | 29808 ft | 508 kts | 311° |
| 2026-05-06 08:41 | 13.06685 | 91.18695 | 29813 ft | 508 kts | 311° |
| 2026-05-06 08:41 | 13.11448 | 91.13402 | 29814 ft | 509 kts | 311° |
| 2026-05-06 08:42 | 13.16245 | 91.08076 | 29813 ft | 508 kts | 311° |
| 2026-05-06 08:42 | 13.21034 | 91.02747 | 29816 ft | 508 kts | 311° |
| 2026-05-06 08:43 | 13.25821 | 90.97428 | 29812 ft | 507 kts | 311° |
| 2026-05-06 08:43 | 13.30604 | 90.92100 | 29814 ft | 507 kts | 311° |
| 2026-05-06 08:44 | 13.35380 | 90.86773 | 29813 ft | 507 kts | 311° |
| 2026-05-06 08:44 | 13.40156 | 90.81443 | 29815 ft | 507 kts | 311° |
| 2026-05-06 08:45 | 13.44936 | 90.76123 | 29818 ft | 507 kts | 311° |
| 2026-05-06 08:45 | 13.49708 | 90.70788 | 29821 ft | 507 kts | 311° |
| 2026-05-06 08:46 | 13.54475 | 90.65459 | 29820 ft | 506 kts | 310° |
| 2026-05-06 08:46 | 13.59235 | 90.60133 | 29816 ft | 506 kts | 310° |
| 2026-05-06 08:47 | 13.63994 | 90.54813 | 29813 ft | 505 kts | 310° |
| 2026-05-06 08:47 | 13.68750 | 90.49491 | 29813 ft | 505 kts | 310° |
| 2026-05-06 08:48 | 13.73474 | 90.44204 | 29816 ft | 505 kts | 311° |
| 2026-05-06 08:48 | 13.78229 | 90.38883 | 29817 ft | 505 kts | 310° |
| 2026-05-06 08:49 | 13.82986 | 90.33548 | 29815 ft | 506 kts | 311° |
| 2026-05-06 08:49 | 13.87742 | 90.28213 | 29819 ft | 506 kts | 310° |
| 2026-05-06 08:50 | 13.92490 | 90.22876 | 29816 ft | 505 kts | 310° |
| 2026-05-06 08:50 | 13.97241 | 90.17537 | 29819 ft | 506 kts | 310° |
| 2026-05-06 08:51 | 14.01992 | 90.12199 | 29819 ft | 506 kts | 310° |
| 2026-05-06 08:51 | 14.06742 | 90.06853 | 29820 ft | 506 kts | 310° |
| 2026-05-06 08:52 | 14.11491 | 90.01507 | 29818 ft | 506 kts | 310° |
| 2026-05-06 08:52 | 14.16243 | 89.96154 | 29807 ft | 507 kts | 310° |
| 2026-05-06 08:53 | 14.21000 | 89.90786 | 29812 ft | 508 kts | 310° |
| 2026-05-06 08:53 | 14.25759 | 89.85422 | 29846 ft | 507 kts | 310° |
| 2026-05-06 08:54 | 14.30510 | 89.80064 | 29995 ft | 506 kts | 310° |
| 2026-05-06 08:54 | 14.35251 | 89.74709 | 30106 ft | 505 kts | 310° |
| 2026-05-06 08:55 | 14.39992 | 89.69355 | 30249 ft | 505 kts | 310° |
| 2026-05-06 08:55 | 14.44719 | 89.64001 | 30417 ft | 504 kts | 310° |
| 2026-05-06 08:56 | 14.49445 | 89.58653 | 30570 ft | 504 kts | 310° |
| 2026-05-06 08:56 | 14.54132 | 89.53343 | 30745 ft | 503 kts | 310° |
| 2026-05-06 08:57 | 14.58848 | 89.48000 | 30946 ft | 502 kts | 310° |
| 2026-05-06 08:57 | 14.61192 | 89.45338 | 31065 ft | 501 kts | 310° |
| 2026-05-06 08:57 | 14.63539 | 89.42674 | 31164 ft | 501 kts | 310° |
| 2026-05-06 08:57 | 14.65880 | 89.40017 | 31294 ft | 500 kts | 310° |
| 2026-05-06 08:58 | 14.68218 | 89.37359 | 31412 ft | 500 kts | 310° |
| 2026-05-06 08:58 | 14.70558 | 89.34699 | 31529 ft | 500 kts | 310° |
| 2026-05-06 08:58 | 14.72893 | 89.32048 | 31648 ft | 499 kts | 310° |
| 2026-05-06 08:58 | 14.75243 | 89.29414 | 31764 ft | 499 kts | 311° |
| 2026-05-06 08:59 | 14.77661 | 89.26835 | 31819 ft | 500 kts | 312° |
| 2026-05-06 08:59 | 14.82538 | 89.21707 | 31823 ft | 500 kts | 312° |
| 2026-05-06 09:00 | 14.87400 | 89.16556 | 31827 ft | 501 kts | 312° |
| 2026-05-06 09:00 | 14.92249 | 89.11391 | 31825 ft | 501 kts | 312° |
| 2026-05-06 09:01 | 14.97092 | 89.06228 | 31827 ft | 499 kts | 311° |
| 2026-05-06 09:01 | 15.01913 | 89.01078 | 31817 ft | 498 kts | 311° |
| 2026-05-06 09:02 | 15.06730 | 88.95928 | 31813 ft | 498 kts | 311° |
| 2026-05-06 09:02 | 15.11547 | 88.90779 | 31813 ft | 498 kts | 312° |
| 2026-05-06 09:03 | 15.16359 | 88.85631 | 31809 ft | 497 kts | 311° |
| 2026-05-06 09:03 | 15.21168 | 88.80476 | 31807 ft | 498 kts | 311° |
| 2026-05-06 09:04 | 15.25978 | 88.75319 | 31811 ft | 498 kts | 311° |
| 2026-05-06 09:04 | 15.30758 | 88.70197 | 31807 ft | 498 kts | 311° |
| 2026-05-06 09:05 | 15.35600 | 88.64996 | 31812 ft | 498 kts | 311° |
| 2026-05-06 09:05 | 15.40380 | 88.59868 | 31811 ft | 498 kts | 311° |
| 2026-05-06 09:06 | 15.45195 | 88.54693 | 31818 ft | 498 kts | 311° |
| 2026-05-06 09:06 | 15.50007 | 88.49514 | 31819 ft | 499 kts | 311° |
| 2026-05-06 09:07 | 15.54822 | 88.44329 | 31808 ft | 500 kts | 311° |
| 2026-05-06 09:07 | 15.59652 | 88.39128 | 31815 ft | 501 kts | 311° |
| 2026-05-06 09:08 | 15.64485 | 88.33922 | 31823 ft | 501 kts | 311° |
| 2026-05-06 09:08 | 15.69310 | 88.28711 | 31837 ft | 500 kts | 311° |
| 2026-05-06 09:09 | 15.74127 | 88.23508 | 31823 ft | 499 kts | 311° |
| 2026-05-06 09:09 | 15.78945 | 88.18308 | 31826 ft | 500 kts | 311° |
| 2026-05-06 09:10 | 15.83760 | 88.13104 | 31819 ft | 499 kts | 311° |
| 2026-05-06 09:10 | 15.88538 | 88.07937 | 31824 ft | 499 kts | 311° |
| 2026-05-06 09:11 | 15.93340 | 88.02741 | 31832 ft | 498 kts | 311° |
| 2026-05-06 09:11 | 15.98122 | 87.97545 | 31828 ft | 497 kts | 311° |
| 2026-05-06 09:12 | 16.02902 | 87.92364 | 31844 ft | 495 kts | 310° |
| 2026-05-06 09:12 | 16.07661 | 87.87201 | 31830 ft | 494 kts | 310° |
| 2026-05-06 09:13 | 16.12418 | 87.82048 | 31821 ft | 493 kts | 310° |
| 2026-05-06 09:13 | 16.17157 | 87.76889 | 31819 ft | 493 kts | 310° |
| 2026-05-06 09:14 | 16.21897 | 87.71739 | 31814 ft | 493 kts | 310° |
| 2026-05-06 09:14 | 16.26633 | 87.66584 | 31814 ft | 492 kts | 310° |
| 2026-05-06 09:15 | 16.31361 | 87.61436 | 31810 ft | 492 kts | 310° |
| 2026-05-06 09:15 | 16.36090 | 87.56281 | 31817 ft | 492 kts | 310° |
| 2026-05-06 09:16 | 16.40817 | 87.51127 | 31820 ft | 492 kts | 310° |
| 2026-05-06 09:16 | 16.45542 | 87.45966 | 31819 ft | 492 kts | 310° |
| 2026-05-06 09:17 | 16.50234 | 87.40843 | 31823 ft | 492 kts | 310° |
| 2026-05-06 09:17 | 16.54960 | 87.35680 | 31820 ft | 492 kts | 310° |
| 2026-05-06 09:18 | 16.59680 | 87.30510 | 31820 ft | 492 kts | 310° |
| 2026-05-06 09:18 | 16.64403 | 87.25328 | 31821 ft | 493 kts | 310° |
| 2026-05-06 09:19 | 16.69121 | 87.20154 | 31821 ft | 492 kts | 310° |
| 2026-05-06 09:19 | 16.73846 | 87.14984 | 31823 ft | 492 kts | 310° |
| 2026-05-06 09:20 | 16.78610 | 87.09860 | 31819 ft | 492 kts | 311° |
| 2026-05-06 09:20 | 16.83405 | 87.04760 | 31817 ft | 492 kts | 311° |
| 2026-05-06 09:21 | 16.87377 | 87.00517 | 31817 ft | 491 kts | 311° |
| 2026-05-06 09:21 | 16.92157 | 86.95411 | 31818 ft | 491 kts | 311° |
| 2026-05-06 09:22 | 16.96920 | 86.90294 | 31815 ft | 491 kts | 311° |
| 2026-05-06 09:22 | 17.01683 | 86.85188 | 31818 ft | 491 kts | 311° |
| 2026-05-06 09:23 | 17.06446 | 86.80087 | 31825 ft | 490 kts | 310° |
| 2026-05-06 09:23 | 17.11195 | 86.74993 | 31818 ft | 489 kts | 310° |
| 2026-05-06 09:24 | 17.15939 | 86.69896 | 31816 ft | 489 kts | 310° |
| 2026-05-06 09:24 | 17.20675 | 86.64801 | 31815 ft | 489 kts | 310° |
| 2026-05-06 09:25 | 17.25410 | 86.59697 | 31813 ft | 489 kts | 310° |
| 2026-05-06 09:25 | 17.30149 | 86.54595 | 31819 ft | 489 kts | 310° |
| 2026-05-06 09:26 | 17.34882 | 86.49490 | 31815 ft | 488 kts | 310° |
| 2026-05-06 09:26 | 17.39612 | 86.44390 | 31825 ft | 488 kts | 310° |
| 2026-05-06 09:27 | 17.44336 | 86.39287 | 31816 ft | 488 kts | 310° |
| 2026-05-06 09:27 | 17.49050 | 86.34187 | 31811 ft | 487 kts | 310° |
| 2026-05-06 09:28 | 17.53766 | 86.29088 | 31809 ft | 487 kts | 310° |
| 2026-05-06 09:28 | 17.58476 | 86.23991 | 31803 ft | 487 kts | 310° |
| 2026-05-06 09:29 | 17.63186 | 86.18888 | 31806 ft | 487 kts | 310° |
| 2026-05-06 09:29 | 17.67897 | 86.13783 | 31801 ft | 487 kts | 310° |
| 2026-05-06 09:30 | 17.72605 | 86.08674 | 31807 ft | 487 kts | 310° |
| 2026-05-06 09:30 | 17.77313 | 86.03565 | 31806 ft | 487 kts | 310° |
| 2026-05-06 09:31 | 17.82009 | 85.98455 | 31805 ft | 487 kts | 309° |
| 2026-05-06 09:31 | 17.86675 | 85.93381 | 31798 ft | 486 kts | 310° |
| 2026-05-06 09:32 | 17.91372 | 85.88272 | 31798 ft | 486 kts | 310° |
| 2026-05-06 09:32 | 17.96065 | 85.83165 | 31799 ft | 486 kts | 310° |
| 2026-05-06 09:33 | 18.00762 | 85.78052 | 31797 ft | 486 kts | 310° |
| 2026-05-06 09:33 | 18.05449 | 85.72933 | 31809 ft | 486 kts | 310° |
| 2026-05-06 09:34 | 18.10137 | 85.67815 | 31801 ft | 486 kts | 310° |
| 2026-05-06 09:34 | 18.14820 | 85.62701 | 31796 ft | 485 kts | 310° |
| 2026-05-06 09:35 | 18.19494 | 85.57582 | 31790 ft | 485 kts | 310° |
| 2026-05-06 09:35 | 18.24164 | 85.52465 | 31790 ft | 485 kts | 309° |
| 2026-05-06 09:36 | 18.28838 | 85.47343 | 31794 ft | 485 kts | 310° |
| 2026-05-06 09:36 | 18.33507 | 85.42226 | 31791 ft | 485 kts | 310° |
| 2026-05-06 09:37 | 18.38176 | 85.37101 | 31794 ft | 485 kts | 310° |
| 2026-05-06 09:37 | 18.42843 | 85.31975 | 31808 ft | 484 kts | 310° |
| 2026-05-06 09:38 | 18.47497 | 85.26861 | 31795 ft | 484 kts | 309° |
| 2026-05-06 09:38 | 18.52145 | 85.21746 | 31793 ft | 483 kts | 310° |
| 2026-05-06 09:39 | 18.56801 | 85.16632 | 31792 ft | 483 kts | 310° |
| 2026-05-06 09:39 | 18.61445 | 85.11517 | 31789 ft | 483 kts | 310° |
| 2026-05-06 09:40 | 18.66053 | 85.06428 | 31784 ft | 483 kts | 309° |
| 2026-05-06 09:40 | 18.73000 | 84.98754 | 31788 ft | 482 kts | 310° |
| 2026-05-06 09:41 | 18.77634 | 84.93653 | 31783 ft | 482 kts | 310° |
| 2026-05-06 09:41 | 18.82288 | 84.88566 | 31781 ft | 481 kts | 310° |
| 2026-05-06 09:42 | 18.86915 | 84.83464 | 31777 ft | 481 kts | 309° |
| 2026-05-06 09:42 | 18.91525 | 84.78346 | 31779 ft | 481 kts | 309° |
| 2026-05-06 09:43 | 18.96134 | 84.73224 | 31776 ft | 481 kts | 310° |
| 2026-05-06 09:43 | 19.00749 | 84.68103 | 31775 ft | 481 kts | 309° |
| 2026-05-06 09:44 | 19.05358 | 84.62983 | 31813 ft | 480 kts | 309° |
| 2026-05-06 09:44 | 19.09953 | 84.57870 | 31799 ft | 479 kts | 309° |
| 2026-05-06 09:45 | 19.14537 | 84.52767 | 31797 ft | 478 kts | 309° |
| 2026-05-06 09:45 | 19.19113 | 84.47669 | 31801 ft | 478 kts | 309° |
| 2026-05-06 09:46 | 19.23685 | 84.42569 | 31803 ft | 478 kts | 309° |
| 2026-05-06 09:46 | 19.28228 | 84.37505 | 31797 ft | 478 kts | 309° |
| 2026-05-06 09:47 | 19.32801 | 84.32396 | 31800 ft | 477 kts | 309° |
| 2026-05-06 09:47 | 19.37366 | 84.27295 | 31814 ft | 477 kts | 309° |
| 2026-05-06 09:48 | 19.41938 | 84.22185 | 31811 ft | 478 kts | 309° |
| 2026-05-06 09:48 | 19.46560 | 84.17116 | 31814 ft | 478 kts | 310° |
| 2026-05-06 09:49 | 19.51251 | 84.12114 | 31814 ft | 479 kts | 310° |
| 2026-05-06 09:49 | 19.55926 | 84.07087 | 31815 ft | 478 kts | 309° |
| 2026-05-06 09:50 | 19.60565 | 84.02033 | 31803 ft | 478 kts | 310° |
| 2026-05-06 09:50 | 19.65227 | 83.97005 | 31811 ft | 478 kts | 310° |
| 2026-05-06 09:51 | 19.69896 | 83.91980 | 31828 ft | 478 kts | 310° |
| 2026-05-06 09:51 | 19.74549 | 83.86955 | 31819 ft | 477 kts | 309° |
| 2026-05-06 09:52 | 19.79186 | 83.81924 | 31790 ft | 476 kts | 310° |
| 2026-05-06 09:52 | 19.83828 | 83.76908 | 31795 ft | 477 kts | 310° |
| 2026-05-06 09:53 | 19.88489 | 83.71898 | 31815 ft | 476 kts | 310° |
| 2026-05-06 09:53 | 19.93118 | 83.66901 | 31785 ft | 473 kts | 310° |
| 2026-05-06 09:54 | 19.97708 | 83.61915 | 31760 ft | 472 kts | 310° |
| 2026-05-06 09:54 | 20.02299 | 83.56901 | 31785 ft | 474 kts | 310° |
| 2026-05-06 09:55 | 20.06920 | 83.51889 | 31799 ft | 475 kts | 310° |
| 2026-05-06 09:55 | 20.11543 | 83.46880 | 31798 ft | 474 kts | 310° |
| 2026-05-06 09:56 | 20.16150 | 83.41864 | 31789 ft | 474 kts | 310° |
| 2026-05-06 09:56 | 20.20749 | 83.36850 | 31786 ft | 473 kts | 310° |
| 2026-05-06 09:57 | 20.25322 | 83.31867 | 31792 ft | 473 kts | 309° |
| 2026-05-06 09:57 | 20.29920 | 83.26848 | 31784 ft | 473 kts | 309° |
| 2026-05-06 09:58 | 20.34517 | 83.21828 | 31796 ft | 474 kts | 309° |
| 2026-05-06 09:58 | 20.39111 | 83.16801 | 31786 ft | 473 kts | 309° |
| 2026-05-06 09:59 | 20.43696 | 83.11778 | 31800 ft | 472 kts | 310° |
| 2026-05-06 09:59 | 20.48283 | 83.06770 | 31790 ft | 472 kts | 310° |
| 2026-05-06 10:00 | 20.52861 | 83.01759 | 31784 ft | 471 kts | 309° |
| 2026-05-06 10:00 | 20.57420 | 82.96739 | 31794 ft | 471 kts | 310° |
| 2026-05-06 10:01 | 20.61979 | 82.91723 | 31784 ft | 470 kts | 309° |
| 2026-05-06 10:01 | 20.66527 | 82.86703 | 31804 ft | 470 kts | 309° |
| 2026-05-06 10:02 | 20.71074 | 82.81689 | 31790 ft | 469 kts | 309° |
| 2026-05-06 10:02 | 20.75614 | 82.76676 | 31788 ft | 469 kts | 310° |
| 2026-05-06 10:03 | 20.80138 | 82.71665 | 31783 ft | 468 kts | 309° |
| 2026-05-06 10:03 | 20.84660 | 82.66659 | 31795 ft | 468 kts | 309° |
| 2026-05-06 10:04 | 20.89172 | 82.61646 | 31783 ft | 468 kts | 309° |
| 2026-05-06 10:04 | 20.93691 | 82.56643 | 31783 ft | 468 kts | 309° |
| 2026-05-06 10:05 | 20.98237 | 82.51652 | 31806 ft | 468 kts | 309° |
| 2026-05-06 10:05 | 21.02768 | 82.46658 | 31776 ft | 467 kts | 309° |
| 2026-05-06 10:06 | 21.07291 | 82.41663 | 31777 ft | 467 kts | 309° |
| 2026-05-06 10:06 | 21.11804 | 82.36680 | 31791 ft | 466 kts | 309° |
| 2026-05-06 10:07 | 21.16316 | 82.31699 | 31794 ft | 465 kts | 309° |
| 2026-05-06 10:07 | 21.20821 | 82.26723 | 31778 ft | 465 kts | 309° |
| 2026-05-06 10:08 | 21.25323 | 82.21738 | 31771 ft | 465 kts | 309° |
| 2026-05-06 10:08 | 21.29061 | 82.17592 | 31822 ft | 465 kts | 309° |
| 2026-05-06 10:09 | 21.33554 | 82.12600 | 31789 ft | 465 kts | 309° |
| 2026-05-06 10:09 | 21.38777 | 82.06814 | 31784 ft | 464 kts | 309° |
| 2026-05-06 10:10 | 21.42538 | 82.02649 | 31786 ft | 464 kts | 309° |
| 2026-05-06 10:10 | 21.47025 | 81.97677 | 31782 ft | 464 kts | 310° |
| 2026-05-06 10:11 | 21.51609 | 81.92789 | 31784 ft | 465 kts | 310° |
| 2026-05-06 10:11 | 21.56199 | 81.87903 | 31784 ft | 465 kts | 310° |
| 2026-05-06 10:12 | 21.60775 | 81.83001 | 31800 ft | 464 kts | 310° |
| 2026-05-06 10:12 | 21.65348 | 81.78093 | 31787 ft | 464 kts | 310° |
| 2026-05-06 10:13 | 21.69878 | 81.73213 | 31789 ft | 464 kts | 310° |
| 2026-05-06 10:13 | 21.74443 | 81.68297 | 31789 ft | 465 kts | 310° |
| 2026-05-06 10:14 | 21.79002 | 81.63381 | 31795 ft | 464 kts | 310° |
| 2026-05-06 10:14 | 21.83498 | 81.58412 | 31792 ft | 463 kts | 309° |
| 2026-05-06 10:15 | 21.87969 | 81.53416 | 31792 ft | 463 kts | 309° |
| 2026-05-06 10:15 | 21.92449 | 81.48436 | 31794 ft | 463 kts | 309° |
| 2026-05-06 10:16 | 21.96903 | 81.43426 | 31793 ft | 463 kts | 309° |
| 2026-05-06 10:16 | 22.01329 | 81.38384 | 31796 ft | 463 kts | 309° |
| 2026-05-06 10:17 | 22.05754 | 81.33349 | 31802 ft | 463 kts | 309° |
| 2026-05-06 10:17 | 22.10185 | 81.28309 | 31802 ft | 462 kts | 309° |
| 2026-05-06 10:18 | 22.14639 | 81.23307 | 31802 ft | 463 kts | 309° |
| 2026-05-06 10:18 | 22.19116 | 81.18323 | 31810 ft | 462 kts | 309° |
| 2026-05-06 10:19 | 22.23586 | 81.13330 | 31815 ft | 463 kts | 309° |
| 2026-05-06 10:19 | 22.28058 | 81.08329 | 31814 ft | 463 kts | 309° |
| 2026-05-06 10:20 | 22.32522 | 81.03330 | 31822 ft | 463 kts | 309° |
| 2026-05-06 10:20 | 22.37006 | 80.98329 | 31813 ft | 464 kts | 309° |
| 2026-05-06 10:21 | 22.41450 | 80.93352 | 31830 ft | 463 kts | 309° |
| 2026-05-06 10:21 | 22.45922 | 80.88346 | 31844 ft | 462 kts | 310° |
| 2026-05-06 10:22 | 22.50378 | 80.83341 | 31838 ft | 461 kts | 309° |
| 2026-05-06 10:22 | 22.54816 | 80.78335 | 31841 ft | 461 kts | 309° |
| 2026-05-06 10:23 | 22.59246 | 80.73332 | 31830 ft | 460 kts | 309° |
| 2026-05-06 10:23 | 22.63679 | 80.68344 | 31827 ft | 460 kts | 309° |
| 2026-05-06 10:24 | 22.68106 | 80.63347 | 31822 ft | 459 kts | 309° |
| 2026-05-06 10:24 | 22.72526 | 80.58356 | 31821 ft | 459 kts | 309° |
| 2026-05-06 10:25 | 22.76939 | 80.53361 | 31817 ft | 458 kts | 309° |
| 2026-05-06 10:25 | 22.81351 | 80.48376 | 31819 ft | 458 kts | 309° |
| 2026-05-06 10:26 | 22.85756 | 80.43390 | 31816 ft | 458 kts | 309° |
| 2026-05-06 10:26 | 22.90146 | 80.38389 | 31824 ft | 458 kts | 309° |
| 2026-05-06 10:27 | 22.94543 | 80.33406 | 31824 ft | 457 kts | 309° |
| 2026-05-06 10:27 | 22.98944 | 80.28422 | 31828 ft | 457 kts | 309° |
| 2026-05-06 10:28 | 23.03316 | 80.23467 | 31822 ft | 457 kts | 309° |
| 2026-05-06 10:28 | 23.07705 | 80.18468 | 31822 ft | 458 kts | 309° |
| 2026-05-06 10:29 | 23.12095 | 80.13463 | 31858 ft | 457 kts | 309° |
| 2026-05-06 10:29 | 23.16485 | 80.08463 | 31831 ft | 456 kts | 309° |
| 2026-05-06 10:30 | 23.20298 | 80.03013 | 31826 ft | 451 kts | 299° |
| 2026-05-06 10:30 | 23.23494 | 79.97165 | 31819 ft | 450 kts | 298° |
| 2026-05-06 10:31 | 23.26708 | 79.91315 | 31822 ft | 451 kts | 298° |
| 2026-05-06 10:31 | 23.29915 | 79.85471 | 31813 ft | 450 kts | 298° |
| 2026-05-06 10:32 | 23.33126 | 79.79624 | 31814 ft | 450 kts | 298° |
| 2026-05-06 10:32 | 23.36332 | 79.73769 | 31811 ft | 450 kts | 298° |
| 2026-05-06 10:33 | 23.39533 | 79.67909 | 31812 ft | 450 kts | 297° |
| 2026-05-06 10:33 | 23.42739 | 79.62051 | 31828 ft | 450 kts | 298° |
| 2026-05-06 10:34 | 23.45955 | 79.56203 | 31816 ft | 450 kts | 298° |
| 2026-05-06 10:34 | 23.49153 | 79.50346 | 31812 ft | 450 kts | 297° |
| 2026-05-06 10:35 | 23.52328 | 79.44477 | 31809 ft | 449 kts | 297° |
| 2026-05-06 10:35 | 23.55505 | 79.38617 | 31812 ft | 449 kts | 298° |
| 2026-05-06 10:36 | 23.58694 | 79.32761 | 31810 ft | 449 kts | 298° |
| 2026-05-06 10:36 | 23.61867 | 79.26906 | 31807 ft | 448 kts | 298° |
| 2026-05-06 10:37 | 23.65037 | 79.21045 | 31805 ft | 449 kts | 298° |
| 2026-05-06 10:37 | 23.68209 | 79.15183 | 31804 ft | 449 kts | 298° |
| 2026-05-06 10:38 | 23.71370 | 79.09367 | 31815 ft | 448 kts | 298° |
| 2026-05-06 10:38 | 23.74540 | 79.03508 | 31818 ft | 448 kts | 298° |
| 2026-05-06 10:39 | 23.77709 | 78.97638 | 31799 ft | 449 kts | 298° |
| 2026-05-06 10:39 | 23.80867 | 78.91769 | 31803 ft | 449 kts | 298° |
| 2026-05-06 10:40 | 23.84032 | 78.85892 | 31820 ft | 448 kts | 298° |
| 2026-05-06 10:40 | 23.87196 | 78.80028 | 31820 ft | 448 kts | 298° |
| 2026-05-06 10:41 | 23.90352 | 78.74150 | 31816 ft | 448 kts | 298° |
| 2026-05-06 10:41 | 23.93502 | 78.68270 | 31805 ft | 448 kts | 298° |
| 2026-05-06 10:42 | 23.96646 | 78.62399 | 31832 ft | 447 kts | 298° |
| 2026-05-06 10:42 | 23.99786 | 78.56535 | 31822 ft | 446 kts | 298° |
| 2026-05-06 10:43 | 24.02935 | 78.50684 | 31819 ft | 446 kts | 298° |
| 2026-05-06 10:44 | 24.07727 | 78.41971 | 31816 ft | 445 kts | 299° |
| 2026-05-06 10:44 | 24.10920 | 78.36166 | 31813 ft | 445 kts | 299° |
| 2026-05-06 10:45 | 24.14118 | 78.30363 | 31809 ft | 445 kts | 299° |
| 2026-05-06 10:45 | 24.17295 | 78.24546 | 31809 ft | 445 kts | 298° |
| 2026-05-06 10:46 | 24.20460 | 78.18728 | 31813 ft | 445 kts | 298° |
| 2026-05-06 10:46 | 24.23635 | 78.12906 | 31855 ft | 445 kts | 298° |
| 2026-05-06 10:47 | 24.26812 | 78.07079 | 31828 ft | 445 kts | 299° |
| 2026-05-06 10:47 | 24.29957 | 78.01296 | 31831 ft | 445 kts | 298° |
| 2026-05-06 10:48 | 24.33146 | 77.95435 | 31830 ft | 444 kts | 299° |
| 2026-05-06 10:48 | 24.36303 | 77.89622 | 31833 ft | 443 kts | 299° |
| 2026-05-06 10:49 | 24.39445 | 77.83816 | 31831 ft | 443 kts | 299° |
| 2026-05-06 10:49 | 24.42568 | 77.78049 | 31836 ft | 442 kts | 299° |
| 2026-05-06 10:50 | 24.45713 | 77.72250 | 31833 ft | 442 kts | 298° |
| 2026-05-06 10:50 | 24.48843 | 77.66441 | 31844 ft | 442 kts | 298° |
| 2026-05-06 10:51 | 24.51969 | 77.60629 | 31848 ft | 442 kts | 299° |
| 2026-05-06 10:51 | 24.55098 | 77.54825 | 31857 ft | 441 kts | 299° |
| 2026-05-06 10:52 | 24.58217 | 77.49033 | 31843 ft | 440 kts | 299° |
| 2026-05-06 10:52 | 24.61335 | 77.43245 | 31830 ft | 440 kts | 299° |
| 2026-05-06 10:53 | 24.64439 | 77.37459 | 31840 ft | 439 kts | 299° |
| 2026-05-06 10:53 | 24.67541 | 77.31668 | 31837 ft | 439 kts | 299° |
| 2026-05-06 10:54 | 24.70655 | 77.25877 | 31845 ft | 440 kts | 299° |
| 2026-05-06 10:54 | 24.73820 | 77.20109 | 31843 ft | 440 kts | 300° |
| 2026-05-06 10:55 | 24.76993 | 77.14360 | 31846 ft | 439 kts | 300° |
| 2026-05-06 10:55 | 24.80148 | 77.08604 | 31838 ft | 439 kts | 300° |
| 2026-05-06 10:56 | 24.83306 | 77.02852 | 31838 ft | 439 kts | 300° |
| 2026-05-06 10:56 | 24.86460 | 76.97093 | 31835 ft | 439 kts | 300° |
| 2026-05-06 10:57 | 24.89613 | 76.91327 | 31831 ft | 439 kts | 300° |
| 2026-05-06 10:57 | 24.92755 | 76.85557 | 31828 ft | 439 kts | 300° |
| 2026-05-06 10:58 | 24.95361 | 76.80770 | 31837 ft | 438 kts | 300° |
| 2026-05-06 10:58 | 24.98501 | 76.75016 | 31831 ft | 438 kts | 300° |
| 2026-05-06 10:59 | 25.02510 | 76.68577 | 31830 ft | 439 kts | 306° |
| 2026-05-06 10:59 | 25.05633 | 76.64106 | 31840 ft | 439 kts | 306° |
| 2026-05-06 11:00 | 25.09340 | 76.58756 | 31836 ft | 438 kts | 306° |
| 2026-05-06 11:00 | 25.13048 | 76.53417 | 31840 ft | 438 kts | 306° |
| 2026-05-06 11:01 | 25.16756 | 76.48073 | 31817 ft | 438 kts | 306° |
| 2026-05-06 11:01 | 25.20454 | 76.42725 | 31807 ft | 438 kts | 306° |
| 2026-05-06 11:02 | 25.24157 | 76.37384 | 31822 ft | 438 kts | 306° |
| 2026-05-06 11:02 | 25.27851 | 76.32034 | 31829 ft | 438 kts | 306° |
| 2026-05-06 11:03 | 25.31545 | 76.26690 | 31830 ft | 437 kts | 306° |
| 2026-05-06 11:03 | 25.35216 | 76.21382 | 31818 ft | 437 kts | 306° |
| 2026-05-06 11:04 | 25.38910 | 76.16039 | 31817 ft | 437 kts | 306° |
| 2026-05-06 11:04 | 25.42593 | 76.10683 | 31826 ft | 437 kts | 306° |
| 2026-05-06 11:05 | 25.46265 | 76.05323 | 31821 ft | 437 kts | 306° |
| 2026-05-06 11:05 | 25.49935 | 75.99968 | 31820 ft | 436 kts | 306° |
| 2026-05-06 11:06 | 25.53605 | 75.94619 | 31817 ft | 436 kts | 306° |
| 2026-05-06 11:06 | 25.57271 | 75.89264 | 31835 ft | 437 kts | 306° |
| 2026-05-06 11:07 | 25.60941 | 75.83907 | 31823 ft | 437 kts | 306° |
| 2026-05-06 11:07 | 25.64607 | 75.78538 | 31881 ft | 437 kts | 306° |
| 2026-05-06 11:07 | 25.66435 | 75.75854 | 32034 ft | 436 kts | 306° |
| 2026-05-06 11:08 | 25.68257 | 75.73175 | 32143 ft | 435 kts | 306° |
| 2026-05-06 11:08 | 25.70082 | 75.70494 | 32249 ft | 436 kts | 306° |
| 2026-05-06 11:08 | 25.71913 | 75.67817 | 32376 ft | 435 kts | 306° |
| 2026-05-06 11:08 | 25.73741 | 75.65140 | 32491 ft | 435 kts | 306° |
| 2026-05-06 11:09 | 25.75562 | 75.62469 | 32569 ft | 435 kts | 306° |
| 2026-05-06 11:09 | 25.79211 | 75.57115 | 32762 ft | 435 kts | 306° |
| 2026-05-06 11:10 | 25.82854 | 75.51763 | 32938 ft | 435 kts | 306° |
| 2026-05-06 11:10 | 25.84668 | 75.49084 | 33082 ft | 434 kts | 306° |
| 2026-05-06 11:10 | 25.86479 | 75.46408 | 33157 ft | 433 kts | 306° |
| 2026-05-06 11:11 | 25.89968 | 75.40960 | 33321 ft | 432 kts | 303° |
| 2026-05-06 11:11 | 25.91651 | 75.38199 | 33427 ft | 432 kts | 303° |
| 2026-05-06 11:11 | 25.93338 | 75.35441 | 33509 ft | 432 kts | 303° |
| 2026-05-06 11:12 | 25.96720 | 75.29930 | 33634 ft | 431 kts | 303° |
| 2026-05-06 11:12 | 26.00091 | 75.24412 | 33771 ft | 431 kts | 303° |
| 2026-05-06 11:13 | 26.03447 | 75.18888 | 33818 ft | 431 kts | 303° |
| 2026-05-06 11:13 | 26.06802 | 75.13369 | 33818 ft | 431 kts | 303° |
| 2026-05-06 11:14 | 26.10170 | 75.07853 | 33802 ft | 431 kts | 303° |
| 2026-05-06 11:14 | 26.13518 | 75.02340 | 33813 ft | 428 kts | 303° |
| 2026-05-06 11:15 | 26.16851 | 74.96844 | 33814 ft | 429 kts | 303° |
| 2026-05-06 11:15 | 26.19809 | 74.91068 | 33820 ft | 430 kts | 299° |
| 2026-05-06 11:16 | 26.22702 | 74.85232 | 33826 ft | 431 kts | 299° |
| 2026-05-06 11:16 | 26.25599 | 74.79387 | 33829 ft | 431 kts | 299° |
| 2026-05-06 11:17 | 26.28473 | 74.73577 | 33829 ft | 431 kts | 299° |
| 2026-05-06 11:17 | 26.31358 | 74.67721 | 33826 ft | 431 kts | 299° |
| 2026-05-06 11:18 | 26.34245 | 74.61871 | 33835 ft | 431 kts | 299° |
| 2026-05-06 11:18 | 26.37137 | 74.56020 | 33829 ft | 431 kts | 299° |
| 2026-05-06 11:19 | 26.40019 | 74.50166 | 33829 ft | 430 kts | 299° |
| 2026-05-06 11:19 | 26.42887 | 74.44319 | 33823 ft | 430 kts | 298° |
| 2026-05-06 11:20 | 26.45752 | 74.38467 | 33805 ft | 430 kts | 299° |
| 2026-05-06 11:20 | 26.48614 | 74.32617 | 33801 ft | 429 kts | 299° |
| 2026-05-06 11:21 | 26.51478 | 74.26772 | 33807 ft | 429 kts | 299° |
| 2026-05-06 11:21 | 26.54337 | 74.20933 | 33796 ft | 429 kts | 299° |
| 2026-05-06 11:22 | 26.57205 | 74.15098 | 33789 ft | 428 kts | 299° |
| 2026-05-06 11:22 | 26.60101 | 74.09290 | 33784 ft | 428 kts | 299° |
| 2026-05-06 11:23 | 26.62994 | 74.03473 | 33776 ft | 428 kts | 299° |
| 2026-05-06 11:23 | 26.65870 | 73.97655 | 33787 ft | 427 kts | 299° |
| 2026-05-06 11:24 | 26.68744 | 73.91839 | 33761 ft | 427 kts | 299° |
| 2026-05-06 11:24 | 26.71604 | 73.86028 | 33757 ft | 426 kts | 300° |
| 2026-05-06 11:25 | 26.74477 | 73.80221 | 33773 ft | 427 kts | 300° |
| 2026-05-06 11:25 | 26.77336 | 73.74405 | 33766 ft | 426 kts | 299° |
| 2026-05-06 11:26 | 26.80193 | 73.68579 | 33768 ft | 427 kts | 299° |
| 2026-05-06 11:26 | 26.83060 | 73.62751 | 33771 ft | 427 kts | 299° |
| 2026-05-06 11:27 | 26.85906 | 73.56972 | 33754 ft | 426 kts | 300° |
| 2026-05-06 11:27 | 26.88752 | 73.51154 | 33742 ft | 426 kts | 299° |
| 2026-05-06 11:28 | 26.91589 | 73.45326 | 33740 ft | 426 kts | 299° |
| 2026-05-06 11:28 | 26.94437 | 73.39506 | 33746 ft | 426 kts | 299° |
| 2026-05-06 11:29 | 26.97275 | 73.33671 | 33731 ft | 426 kts | 298° |
| 2026-05-06 11:29 | 27.00074 | 73.27804 | 33753 ft | 426 kts | 299° |
| 2026-05-06 11:30 | 27.02875 | 73.21951 | 33742 ft | 426 kts | 299° |
| 2026-05-06 11:30 | 27.05675 | 73.16113 | 33740 ft | 425 kts | 299° |
| 2026-05-06 11:31 | 27.08469 | 73.10267 | 33736 ft | 424 kts | 299° |
| 2026-05-06 11:31 | 27.11250 | 73.04430 | 33731 ft | 425 kts | 299° |
| 2026-05-06 11:32 | 27.14039 | 72.98583 | 33720 ft | 425 kts | 299° |
| 2026-05-06 11:32 | 27.16835 | 72.92751 | 33736 ft | 424 kts | 299° |
| 2026-05-06 11:33 | 27.19610 | 72.86918 | 33716 ft | 423 kts | 299° |
| 2026-05-06 11:33 | 27.22379 | 72.81092 | 33706 ft | 422 kts | 299° |
| 2026-05-06 11:34 | 27.25139 | 72.75268 | 33706 ft | 422 kts | 299° |
| 2026-05-06 11:34 | 27.27892 | 72.69440 | 33702 ft | 422 kts | 299° |
| 2026-05-06 11:35 | 27.30653 | 72.63610 | 33700 ft | 422 kts | 299° |
| 2026-05-06 11:35 | 27.33405 | 72.57784 | 33708 ft | 422 kts | 299° |
| 2026-05-06 11:36 | 27.36152 | 72.51957 | 33699 ft | 421 kts | 299° |
| 2026-05-06 11:36 | 27.38896 | 72.46136 | 33697 ft | 421 kts | 299° |
| 2026-05-06 11:37 | 27.41614 | 72.40346 | 33697 ft | 421 kts | 299° |
| 2026-05-06 11:37 | 27.44359 | 72.34520 | 33698 ft | 422 kts | 298° |
| 2026-05-06 11:38 | 27.47089 | 72.28674 | 33699 ft | 422 kts | 299° |
| 2026-05-06 11:38 | 27.49816 | 72.22834 | 33703 ft | 421 kts | 299° |
| 2026-05-06 11:39 | 27.52545 | 72.16991 | 33698 ft | 421 kts | 298° |
| 2026-05-06 11:39 | 27.55270 | 72.11147 | 33700 ft | 421 kts | 298° |
| 2026-05-06 11:40 | 27.58004 | 72.05308 | 33697 ft | 421 kts | 299° |
| 2026-05-06 11:40 | 27.60721 | 71.99458 | 33696 ft | 421 kts | 298° |
| 2026-05-06 11:41 | 27.63442 | 71.93611 | 33692 ft | 421 kts | 298° |
| 2026-05-06 11:41 | 27.66160 | 71.87771 | 33695 ft | 420 kts | 298° |
| 2026-05-06 11:42 | 27.68867 | 71.81938 | 33693 ft | 419 kts | 299° |
| 2026-05-06 11:42 | 27.71575 | 71.76108 | 33688 ft | 419 kts | 299° |
| 2026-05-06 11:43 | 27.74280 | 71.70270 | 33673 ft | 420 kts | 298° |
| 2026-05-06 11:43 | 27.76983 | 71.64421 | 33675 ft | 420 kts | 298° |
| 2026-05-06 11:44 | 27.81032 | 71.55632 | 33685 ft | 420 kts | 298° |
| 2026-05-06 11:44 | 27.83723 | 71.49780 | 33696 ft | 420 kts | 299° |
| 2026-05-06 11:45 | 27.86410 | 71.43925 | 33691 ft | 419 kts | 299° |
| 2026-05-06 11:45 | 27.88609 | 71.39049 | 33688 ft | 419 kts | 297° |
| 2026-05-06 11:46 | 27.91587 | 71.32166 | 33689 ft | 419 kts | 297° |
| 2026-05-06 11:46 | 27.94149 | 71.26243 | 33709 ft | 419 kts | 297° |
| 2026-05-06 11:47 | 27.96312 | 71.21279 | 33683 ft | 420 kts | 297° |
| 2026-05-06 11:47 | 27.98885 | 71.15350 | 33697 ft | 420 kts | 297° |
| 2026-05-06 11:48 | 28.01457 | 71.09411 | 33700 ft | 420 kts | 297° |
| 2026-05-06 11:48 | 28.04034 | 71.03474 | 33690 ft | 420 kts | 297° |
| 2026-05-06 11:49 | 28.06605 | 70.97536 | 33677 ft | 421 kts | 297° |
| 2026-05-06 11:49 | 28.09169 | 70.91583 | 33681 ft | 421 kts | 297° |
| 2026-05-06 11:50 | 28.11737 | 70.85629 | 33699 ft | 420 kts | 297° |
| 2026-05-06 11:50 | 28.14255 | 70.79722 | 33685 ft | 419 kts | 297° |
| 2026-05-06 11:51 | 28.16817 | 70.73788 | 33673 ft | 420 kts | 297° |
| 2026-05-06 11:51 | 28.19376 | 70.67833 | 33687 ft | 420 kts | 297° |
| 2026-05-06 11:52 | 28.21937 | 70.61865 | 33685 ft | 421 kts | 297° |
| 2026-05-06 11:52 | 28.24490 | 70.55892 | 33683 ft | 421 kts | 297° |
| 2026-05-06 11:53 | 28.27042 | 70.49918 | 33694 ft | 420 kts | 297° |
| 2026-05-06 11:53 | 28.29590 | 70.43954 | 33691 ft | 420 kts | 297° |
| 2026-05-06 11:54 | 28.32124 | 70.37990 | 33685 ft | 420 kts | 297° |
| 2026-05-06 11:54 | 28.34991 | 70.32254 | 33681 ft | 418 kts | 308° |
| 2026-05-06 11:55 | 28.39269 | 70.27777 | 33677 ft | 423 kts | 324° |
| 2026-05-06 11:55 | 28.44673 | 70.25035 | 33679 ft | 433 kts | 340° |
| 2026-05-06 11:56 | 28.50541 | 70.23427 | 33684 ft | 434 kts | 341° |
| 2026-05-06 11:56 | 28.56403 | 70.21778 | 33683 ft | 434 kts | 341° |
| 2026-05-06 11:57 | 28.62257 | 70.20106 | 33676 ft | 434 kts | 341° |
| 2026-05-06 11:57 | 28.68128 | 70.18437 | 33675 ft | 435 kts | 341° |
| 2026-05-06 11:58 | 28.74007 | 70.16774 | 33693 ft | 435 kts | 341° |
| 2026-05-06 11:58 | 28.79893 | 70.15112 | 33691 ft | 436 kts | 341° |
| 2026-05-06 11:59 | 28.85740 | 70.13444 | 33674 ft | 436 kts | 341° |
| 2026-05-06 11:59 | 28.91623 | 70.11784 | 33682 ft | 436 kts | 341° |
| 2026-05-06 12:00 | 28.97505 | 70.10119 | 33687 ft | 435 kts | 341° |
| 2026-05-06 12:00 | 29.03383 | 70.08445 | 33686 ft | 435 kts | 341° |
| 2026-05-06 12:01 | 29.09254 | 70.06759 | 33680 ft | 435 kts | 341° |
| 2026-05-06 12:01 | 29.15130 | 70.05088 | 33696 ft | 435 kts | 341° |
| 2026-05-06 12:02 | 29.21023 | 70.03404 | 33685 ft | 437 kts | 341° |
| 2026-05-06 12:02 | 29.26913 | 70.01698 | 33685 ft | 437 kts | 341° |
| 2026-05-06 12:03 | 29.32812 | 70.00010 | 33698 ft | 437 kts | 341° |
| 2026-05-06 12:03 | 29.38715 | 69.98323 | 33700 ft | 437 kts | 341° |
| 2026-05-06 12:04 | 29.44627 | 69.96621 | 33711 ft | 438 kts | 341° |
| 2026-05-06 12:04 | 29.50552 | 69.94918 | 33709 ft | 439 kts | 342° |
| 2026-05-06 12:05 | 29.56487 | 69.93231 | 33712 ft | 439 kts | 341° |
| 2026-05-06 12:05 | 29.62423 | 69.91529 | 33722 ft | 440 kts | 341° |
| 2026-05-06 12:06 | 29.68359 | 69.89799 | 33732 ft | 441 kts | 341° |
| 2026-05-06 12:06 | 29.74311 | 69.88086 | 33747 ft | 441 kts | 341° |
| 2026-05-06 12:07 | 29.80260 | 69.86370 | 33747 ft | 440 kts | 341° |
| 2026-05-06 12:07 | 29.86198 | 69.84643 | 33760 ft | 440 kts | 341° |
| 2026-05-06 12:08 | 29.92139 | 69.82920 | 33756 ft | 440 kts | 341° |
| 2026-05-06 12:08 | 29.98079 | 69.81193 | 33785 ft | 440 kts | 341° |
| 2026-05-06 12:09 | 30.03969 | 69.79476 | 33775 ft | 439 kts | 341° |
| 2026-05-06 12:09 | 30.09889 | 69.77748 | 33771 ft | 439 kts | 341° |
| 2026-05-06 12:10 | 30.15810 | 69.76018 | 33768 ft | 439 kts | 341° |
| 2026-05-06 12:10 | 30.21722 | 69.74284 | 33764 ft | 439 kts | 341° |
| 2026-05-06 12:11 | 30.27668 | 69.72582 | 33770 ft | 441 kts | 343° |
| 2026-05-06 12:11 | 30.33690 | 69.71146 | 33765 ft | 442 kts | 344° |
| 2026-05-06 12:12 | 30.39731 | 69.69718 | 33774 ft | 443 kts | 343° |
| 2026-05-06 12:12 | 30.45764 | 69.68242 | 33793 ft | 443 kts | 343° |
| 2026-05-06 12:13 | 30.51792 | 69.66767 | 33777 ft | 442 kts | 343° |
| 2026-05-06 12:13 | 30.57805 | 69.65286 | 33769 ft | 441 kts | 343° |
| 2026-05-06 12:14 | 30.63811 | 69.63813 | 33762 ft | 441 kts | 343° |
| 2026-05-06 12:14 | 30.69809 | 69.62329 | 33772 ft | 441 kts | 343° |
| 2026-05-06 12:15 | 30.75805 | 69.60853 | 33780 ft | 440 kts | 344° |
| 2026-05-06 12:15 | 30.81780 | 69.59374 | 33771 ft | 438 kts | 344° |
| 2026-05-06 12:16 | 30.87746 | 69.57900 | 33773 ft | 438 kts | 344° |
| 2026-05-06 12:16 | 30.93708 | 69.56427 | 33769 ft | 438 kts | 344° |
| 2026-05-06 12:17 | 30.99663 | 69.54942 | 33781 ft | 438 kts | 344° |
| 2026-05-06 12:17 | 31.05620 | 69.53460 | 33774 ft | 438 kts | 344° |
| 2026-05-06 12:18 | 31.11580 | 69.51991 | 33754 ft | 437 kts | 344° |
| 2026-05-06 12:18 | 31.17487 | 69.50526 | 33744 ft | 437 kts | 344° |
| 2026-05-06 12:19 | 31.23431 | 69.49042 | 33749 ft | 437 kts | 344° |
| 2026-05-06 12:19 | 31.29374 | 69.47554 | 33746 ft | 437 kts | 344° |
| 2026-05-06 12:20 | 31.34947 | 69.44968 | 33748 ft | 430 kts | 326° |
| 2026-05-06 12:20 | 31.39422 | 69.40406 | 33744 ft | 428 kts | 309° |
| 2026-05-06 12:21 | 31.43096 | 69.34930 | 33738 ft | 428 kts | 309° |
| 2026-05-06 12:21 | 31.46803 | 69.29478 | 33741 ft | 428 kts | 309° |
| 2026-05-06 12:22 | 31.50509 | 69.24010 | 33752 ft | 429 kts | 309° |
| 2026-05-06 12:22 | 31.54210 | 69.18531 | 33735 ft | 429 kts | 309° |
| 2026-05-06 12:23 | 31.57914 | 69.13044 | 33758 ft | 429 kts | 309° |
| 2026-05-06 12:23 | 31.61613 | 69.07541 | 33772 ft | 430 kts | 309° |
| 2026-05-06 12:24 | 31.65309 | 69.02015 | 33772 ft | 431 kts | 309° |
| 2026-05-06 12:24 | 31.69055 | 68.96558 | 33783 ft | 433 kts | 310° |
| 2026-05-06 12:25 | 31.72961 | 68.91171 | 33793 ft | 434 kts | 310° |
| 2026-05-06 12:25 | 31.76862 | 68.85755 | 33807 ft | 434 kts | 310° |
| 2026-05-06 12:26 | 31.80738 | 68.80320 | 33817 ft | 434 kts | 310° |
| 2026-05-06 12:26 | 31.84603 | 68.74895 | 33808 ft | 433 kts | 310° |
| 2026-05-06 12:27 | 31.88465 | 68.69463 | 33832 ft | 432 kts | 310° |
| 2026-05-06 12:27 | 31.92319 | 68.64036 | 33816 ft | 432 kts | 310° |
| 2026-05-06 12:28 | 31.96175 | 68.58618 | 33823 ft | 432 kts | 310° |
| 2026-05-06 12:28 | 32.00018 | 68.53188 | 33822 ft | 431 kts | 310° |
| 2026-05-06 12:29 | 32.03860 | 68.47755 | 33814 ft | 431 kts | 309° |
| 2026-05-06 12:29 | 32.07699 | 68.42309 | 33825 ft | 432 kts | 310° |
| 2026-05-06 12:30 | 32.11539 | 68.36848 | 33837 ft | 433 kts | 309° |
| 2026-05-06 12:30 | 32.15388 | 68.31393 | 33844 ft | 433 kts | 310° |
| 2026-05-06 12:31 | 32.19233 | 68.25925 | 33834 ft | 433 kts | 310° |
| 2026-05-06 12:31 | 32.23083 | 68.20456 | 33833 ft | 433 kts | 310° |
| 2026-05-06 12:32 | 32.26930 | 68.14978 | 33819 ft | 434 kts | 310° |
| 2026-05-06 12:32 | 32.30772 | 68.09473 | 33821 ft | 434 kts | 309° |
| 2026-05-06 12:33 | 32.34612 | 68.03949 | 33828 ft | 434 kts | 309° |
| 2026-05-06 12:33 | 32.38436 | 67.98407 | 33817 ft | 435 kts | 309° |
| 2026-05-06 12:34 | 32.42281 | 67.92877 | 33800 ft | 435 kts | 309° |
| 2026-05-06 12:34 | 32.46137 | 67.87358 | 33810 ft | 435 kts | 309° |
| 2026-05-06 12:35 | 32.49325 | 67.82752 | 33791 ft | 435 kts | 309° |
| 2026-05-06 12:35 | 32.53227 | 67.77259 | 33784 ft | 435 kts | 309° |
| 2026-05-06 12:36 | 32.57266 | 67.71903 | 33788 ft | 436 kts | 310° |
| 2026-05-06 12:36 | 32.61317 | 67.66546 | 33799 ft | 436 kts | 309° |
| 2026-05-06 12:37 | 32.65318 | 67.61134 | 33795 ft | 436 kts | 310° |
| 2026-05-06 12:37 | 32.69344 | 67.55747 | 33809 ft | 436 kts | 312° |
| 2026-05-06 12:38 | 32.73366 | 67.50356 | 33804 ft | 436 kts | 310° |
| 2026-05-06 12:38 | 32.77358 | 67.44921 | 33816 ft | 437 kts | 309° |
| 2026-05-06 12:39 | 32.81291 | 67.39409 | 33843 ft | 438 kts | 309° |
| 2026-05-06 12:39 | 32.85208 | 67.33865 | 33868 ft | 438 kts | 310° |
| 2026-05-06 12:40 | 32.89168 | 67.28347 | 33869 ft | 439 kts | 311° |
| 2026-05-06 12:40 | 32.93094 | 67.22802 | 33916 ft | 437 kts | 310° |
| 2026-05-06 12:41 | 32.97001 | 67.17236 | 33908 ft | 438 kts | 310° |
| 2026-05-06 12:41 | 33.00896 | 67.11623 | 33944 ft | 439 kts | 310° |
| 2026-05-06 12:42 | 33.04797 | 67.06020 | 33947 ft | 440 kts | 310° |
| 2026-05-06 12:42 | 33.08684 | 67.00394 | 33979 ft | 439 kts | 310° |
| 2026-05-06 12:43 | 33.12564 | 66.94749 | 33973 ft | 440 kts | 309° |
| 2026-05-06 12:43 | 33.16425 | 66.89090 | 33967 ft | 439 kts | 308° |
| 2026-05-06 12:44 | 33.20265 | 66.83479 | 33968 ft | 440 kts | 309° |
| 2026-05-06 12:44 | 33.24164 | 66.77830 | 33973 ft | 441 kts | 309° |
| 2026-05-06 12:45 | 33.28060 | 66.72160 | 33966 ft | 441 kts | 309° |
| 2026-05-06 12:46 | 33.33928 | 66.63704 | 33954 ft | 441 kts | 309° |
| 2026-05-06 12:46 | 33.37819 | 66.58016 | 33926 ft | 442 kts | 309° |
| 2026-05-06 12:47 | 33.41720 | 66.52354 | 33910 ft | 441 kts | 309° |
| 2026-05-06 12:47 | 33.45615 | 66.46684 | 33891 ft | 441 kts | 309° |
| 2026-05-06 12:48 | 33.49497 | 66.40987 | 33891 ft | 442 kts | 309° |
| 2026-05-06 12:48 | 33.53363 | 66.35275 | 33900 ft | 441 kts | 309° |
| 2026-05-06 12:49 | 33.57230 | 66.29556 | 33901 ft | 442 kts | 309° |
| 2026-05-06 12:49 | 33.61094 | 66.23821 | 33910 ft | 442 kts | 308° |
| 2026-05-06 12:50 | 33.64972 | 66.18091 | 33920 ft | 444 kts | 308° |
| 2026-05-06 12:50 | 33.68853 | 66.12330 | 33946 ft | 444 kts | 308° |
| 2026-05-06 12:51 | 33.72733 | 66.06580 | 33946 ft | 444 kts | 308° |
| 2026-05-06 12:51 | 33.76607 | 66.00803 | 33971 ft | 444 kts | 308° |
| 2026-05-06 12:52 | 33.80466 | 65.95018 | 33975 ft | 443 kts | 307° |
| 2026-05-06 12:52 | 33.84301 | 65.89209 | 33988 ft | 443 kts | 308° |
| 2026-05-06 12:53 | 33.88167 | 65.83482 | 33992 ft | 444 kts | 309° |
| 2026-05-06 12:53 | 33.92027 | 65.77688 | 33986 ft | 444 kts | 308° |
| 2026-05-06 12:54 | 33.95892 | 65.71897 | 34007 ft | 444 kts | 308° |
| 2026-05-06 12:54 | 33.99768 | 65.66107 | 34014 ft | 444 kts | 308° |
| 2026-05-06 12:55 | 34.03622 | 65.60293 | 34025 ft | 444 kts | 308° |
| 2026-05-06 12:55 | 34.07448 | 65.54460 | 34043 ft | 443 kts | 308° |
| 2026-05-06 12:56 | 34.11315 | 65.48672 | 34044 ft | 443 kts | 308° |
| 2026-05-06 12:56 | 34.15191 | 65.42882 | 34045 ft | 443 kts | 308° |
| 2026-05-06 12:57 | 34.19042 | 65.37060 | 34046 ft | 444 kts | 308° |
| 2026-05-06 12:57 | 34.22913 | 65.31252 | 34050 ft | 444 kts | 308° |
| 2026-05-06 12:58 | 34.26762 | 65.25428 | 34048 ft | 443 kts | 308° |
| 2026-05-06 12:58 | 34.30582 | 65.19589 | 34047 ft | 443 kts | 308° |
| 2026-05-06 12:59 | 34.34427 | 65.13757 | 34053 ft | 444 kts | 307° |
| 2026-05-06 12:59 | 34.38246 | 65.07885 | 34039 ft | 444 kts | 307° |
| 2026-05-06 13:00 | 34.42102 | 65.02028 | 34049 ft | 445 kts | 309° |
| 2026-05-06 13:00 | 34.45988 | 64.96209 | 34071 ft | 444 kts | 308° |
| 2026-05-06 13:01 | 34.49814 | 64.90339 | 34075 ft | 443 kts | 308° |
| 2026-05-06 13:01 | 34.53624 | 64.84472 | 34056 ft | 443 kts | 307° |
| 2026-05-06 13:02 | 34.57444 | 64.78608 | 34047 ft | 443 kts | 307° |
| 2026-05-06 13:02 | 34.61235 | 64.72777 | 34053 ft | 443 kts | 308° |
| 2026-05-06 13:03 | 34.65051 | 64.66896 | 34055 ft | 443 kts | 308° |
| 2026-05-06 13:03 | 34.68856 | 64.60999 | 34065 ft | 444 kts | 308° |
| 2026-05-06 13:04 | 34.72680 | 64.55100 | 34063 ft | 444 kts | 307° |
| 2026-05-06 13:04 | 34.76472 | 64.49170 | 34057 ft | 444 kts | 307° |
| 2026-05-06 13:05 | 34.80283 | 64.43250 | 34059 ft | 445 kts | 308° |
| 2026-05-06 13:05 | 34.84095 | 64.37322 | 34043 ft | 445 kts | 307° |
| 2026-05-06 13:06 | 34.87887 | 64.31387 | 34043 ft | 443 kts | 307° |
| 2026-05-06 13:06 | 34.91669 | 64.25448 | 34021 ft | 444 kts | 307° |
| 2026-05-06 13:07 | 34.95468 | 64.19509 | 33995 ft | 444 kts | 307° |
| 2026-05-06 13:07 | 34.99254 | 64.13570 | 33987 ft | 443 kts | 307° |
| 2026-05-06 13:08 | 35.03047 | 64.07641 | 33973 ft | 443 kts | 307° |
| 2026-05-06 13:08 | 35.06839 | 64.01692 | 33982 ft | 444 kts | 307° |
| 2026-05-06 13:09 | 35.10625 | 63.95739 | 33965 ft | 444 kts | 307° |
| 2026-05-06 13:09 | 35.14419 | 63.89791 | 33958 ft | 443 kts | 307° |
| 2026-05-06 13:10 | 35.18197 | 63.83837 | 33942 ft | 443 kts | 307° |
| 2026-05-06 13:10 | 35.21961 | 63.77869 | 33954 ft | 443 kts | 307° |
| 2026-05-06 13:11 | 35.25715 | 63.71894 | 33919 ft | 442 kts | 306° |
| 2026-05-06 13:11 | 35.29467 | 63.65924 | 33910 ft | 442 kts | 306° |
| 2026-05-06 13:12 | 35.33191 | 63.59992 | 33897 ft | 443 kts | 307° |
| 2026-05-06 13:12 | 35.36968 | 63.54033 | 33883 ft | 443 kts | 307° |
| 2026-05-06 13:13 | 35.40739 | 63.48070 | 33859 ft | 443 kts | 307° |
| 2026-05-06 13:13 | 35.44503 | 63.42082 | 33863 ft | 443 kts | 307° |
| 2026-05-06 13:14 | 35.48254 | 63.36091 | 33841 ft | 442 kts | 306° |
| 2026-05-06 13:14 | 35.51994 | 63.30093 | 33843 ft | 442 kts | 306° |
| 2026-05-06 13:15 | 35.55733 | 63.24089 | 33830 ft | 443 kts | 306° |
| 2026-05-06 13:15 | 35.59706 | 63.18315 | 33827 ft | 444 kts | 313° |
| 2026-05-06 13:16 | 35.64167 | 63.13064 | 33824 ft | 444 kts | 313° |
| 2026-05-06 13:16 | 35.68614 | 63.07778 | 33825 ft | 444 kts | 314° |
| 2026-05-06 13:17 | 35.73070 | 63.02518 | 33821 ft | 444 kts | 314° |
| 2026-05-06 13:17 | 35.77523 | 62.97246 | 33816 ft | 444 kts | 314° |
| 2026-05-06 13:18 | 35.81974 | 62.91965 | 33814 ft | 444 kts | 314° |
| 2026-05-06 13:18 | 35.86381 | 62.86687 | 33813 ft | 444 kts | 313° |
| 2026-05-06 13:19 | 35.90829 | 62.81320 | 33808 ft | 445 kts | 313° |
| 2026-05-06 13:19 | 35.95270 | 62.76006 | 33810 ft | 445 kts | 314° |
| 2026-05-06 13:20 | 35.99710 | 62.70707 | 33803 ft | 443 kts | 314° |
| 2026-05-06 13:20 | 36.04141 | 62.65406 | 33798 ft | 443 kts | 313° |
| 2026-05-06 13:21 | 36.08567 | 62.60094 | 33799 ft | 444 kts | 314° |
| 2026-05-06 13:21 | 36.12964 | 62.54815 | 33810 ft | 444 kts | 313° |
| 2026-05-06 13:22 | 36.17387 | 62.49474 | 34024 ft | 443 kts | 313° |
| 2026-05-06 13:22 | 36.19596 | 62.46808 | 34140 ft | 443 kts | 313° |
| 2026-05-06 13:22 | 36.21802 | 62.44147 | 34253 ft | 442 kts | 313° |
| 2026-05-06 13:22 | 36.24002 | 62.41482 | 34393 ft | 442 kts | 312° |
| 2026-05-06 13:23 | 36.26191 | 62.38812 | 34497 ft | 442 kts | 313° |
| 2026-05-06 13:23 | 36.28385 | 62.36147 | 34616 ft | 441 kts | 313° |
| 2026-05-06 13:23 | 36.30572 | 62.33483 | 34727 ft | 441 kts | 313° |
| 2026-05-06 13:23 | 36.32762 | 62.30826 | 34850 ft | 440 kts | 313° |
| 2026-05-06 13:24 | 36.34212 | 62.29066 | 34915 ft | 440 kts | 313° |
| 2026-05-06 13:24 | 36.36399 | 62.26419 | 35047 ft | 440 kts | 313° |
| 2026-05-06 13:24 | 36.38588 | 62.23768 | 35149 ft | 439 kts | 313° |
| 2026-05-06 13:24 | 36.40766 | 62.21122 | 35275 ft | 439 kts | 313° |
| 2026-05-06 13:25 | 36.42953 | 62.18470 | 35399 ft | 439 kts | 313° |
| 2026-05-06 13:25 | 36.45141 | 62.15814 | 35513 ft | 440 kts | 313° |
| 2026-05-06 13:25 | 36.47324 | 62.13158 | 35634 ft | 440 kts | 313° |
| 2026-05-06 13:25 | 36.49506 | 62.10499 | 35744 ft | 439 kts | 312° |
| 2026-05-06 13:26 | 36.51680 | 62.07835 | 35771 ft | 439 kts | 312° |
| 2026-05-06 13:26 | 36.56024 | 62.02517 | 35765 ft | 439 kts | 313° |
| 2026-05-06 13:27 | 36.60375 | 61.97171 | 35763 ft | 440 kts | 312° |
| 2026-05-06 13:27 | 36.64731 | 61.91814 | 35770 ft | 440 kts | 312° |
| 2026-05-06 13:28 | 36.69079 | 61.86471 | 35757 ft | 439 kts | 312° |
| 2026-05-06 13:28 | 36.73415 | 61.81124 | 35769 ft | 439 kts | 312° |
| 2026-05-06 13:29 | 36.77755 | 61.75757 | 35754 ft | 439 kts | 312° |
| 2026-05-06 13:29 | 36.82091 | 61.70378 | 35755 ft | 440 kts | 312° |
| 2026-05-06 13:30 | 36.86449 | 61.65002 | 35756 ft | 440 kts | 312° |
| 2026-05-06 13:30 | 36.90799 | 61.59627 | 35760 ft | 441 kts | 312° |
| 2026-05-06 13:31 | 36.95155 | 61.54224 | 35756 ft | 441 kts | 312° |
| 2026-05-06 13:31 | 36.99509 | 61.48805 | 35761 ft | 442 kts | 312° |
| 2026-05-06 13:32 | 37.03862 | 61.43375 | 35754 ft | 442 kts | 311° |
| 2026-05-06 13:32 | 37.08172 | 61.37961 | 35758 ft | 442 kts | 311° |
| 2026-05-06 13:33 | 37.12524 | 61.32516 | 35758 ft | 442 kts | 311° |
| 2026-05-06 13:33 | 37.16874 | 61.27067 | 35764 ft | 442 kts | 311° |
| 2026-05-06 13:34 | 37.21249 | 61.21572 | 35756 ft | 442 kts | 311° |
| 2026-05-06 13:34 | 37.25565 | 61.16153 | 35748 ft | 442 kts | 311° |
| 2026-05-06 13:35 | 37.29905 | 61.10675 | 35751 ft | 442 kts | 311° |
| 2026-05-06 13:35 | 37.34240 | 61.05194 | 35748 ft | 442 kts | 311° |
| 2026-05-06 13:36 | 37.38584 | 60.99720 | 35749 ft | 442 kts | 311° |
| 2026-05-06 13:36 | 37.42897 | 60.94234 | 35739 ft | 441 kts | 310° |
| 2026-05-06 13:37 | 37.47201 | 60.88740 | 35724 ft | 441 kts | 310° |
| 2026-05-06 13:37 | 37.51513 | 60.83255 | 35727 ft | 440 kts | 311° |
| 2026-05-06 13:38 | 37.55830 | 60.77762 | 35727 ft | 441 kts | 310° |
| 2026-05-06 13:38 | 37.60149 | 60.72249 | 35713 ft | 442 kts | 310° |
| 2026-05-06 13:39 | 37.64461 | 60.66729 | 35705 ft | 442 kts | 310° |
| 2026-05-06 13:39 | 37.68777 | 60.61209 | 35707 ft | 442 kts | 310° |
| 2026-05-06 13:40 | 37.73102 | 60.55673 | 35689 ft | 443 kts | 310° |
| 2026-05-06 13:40 | 37.77406 | 60.50087 | 35692 ft | 443 kts | 309° |
| 2026-05-06 13:41 | 37.81561 | 60.44334 | 35684 ft | 443 kts | 308° |
| 2026-05-06 13:41 | 37.85717 | 60.38577 | 35678 ft | 444 kts | 308° |
| 2026-05-06 13:42 | 37.89897 | 60.32830 | 35685 ft | 444 kts | 308° |
| 2026-05-06 13:42 | 37.94082 | 60.27081 | 35681 ft | 444 kts | 309° |
| 2026-05-06 13:43 | 37.98161 | 60.21215 | 35686 ft | 441 kts | 302° |
| 2026-05-06 13:43 | 38.01185 | 60.14535 | 35692 ft | 435 kts | 290° |
| 2026-05-06 13:44 | 38.03008 | 60.07269 | 35684 ft | 431 kts | 283° |
| 2026-05-06 13:44 | 38.04599 | 59.99932 | 35683 ft | 432 kts | 283° |
| 2026-05-06 13:45 | 38.06171 | 59.92581 | 35686 ft | 432 kts | 283° |
| 2026-05-06 13:45 | 38.08523 | 59.81563 | 35686 ft | 431 kts | 282° |
| 2026-05-06 13:46 | 38.10074 | 59.74227 | 35678 ft | 430 kts | 282° |
| 2026-05-06 13:46 | 38.11614 | 59.66888 | 35677 ft | 430 kts | 282° |
| 2026-05-06 13:47 | 38.13156 | 59.59547 | 35688 ft | 430 kts | 282° |
| 2026-05-06 13:47 | 38.14697 | 59.52224 | 35690 ft | 429 kts | 281° |
| 2026-05-06 13:48 | 38.16209 | 59.44902 | 35683 ft | 428 kts | 281° |
| 2026-05-06 13:48 | 38.17720 | 59.37594 | 35685 ft | 428 kts | 282° |
| 2026-05-06 13:49 | 38.19250 | 59.30284 | 35713 ft | 428 kts | 281° |
| 2026-05-06 13:49 | 38.20722 | 59.22971 | 35670 ft | 426 kts | 279° |
| 2026-05-06 13:50 | 38.21335 | 59.19283 | 35563 ft | 426 kts | 276° |
| 2026-05-06 13:50 | 38.21805 | 59.15608 | 35423 ft | 427 kts | 273° |
| 2026-05-06 13:50 | 38.22119 | 59.11847 | 35209 ft | 429 kts | 271° |
| 2026-05-06 13:50 | 38.22260 | 59.08052 | 34948 ft | 431 kts | 268° |
| 2026-05-06 13:51 | 38.22224 | 59.04192 | 34622 ft | 428 kts | 265° |
| 2026-05-06 13:51 | 38.22028 | 59.00493 | 34268 ft | 422 kts | 262° |
| 2026-05-06 13:51 | 38.21657 | 58.96813 | 33847 ft | 419 kts | 259° |
| 2026-05-06 13:51 | 38.21096 | 58.93167 | 33329 ft | 422 kts | 255° |
| 2026-05-06 13:52 | 38.20338 | 58.89551 | 32740 ft | 425 kts | 252° |
| 2026-05-06 13:52 | 38.19384 | 58.85986 | 32096 ft | 427 kts | 248° |
| 2026-05-06 13:52 | 38.18220 | 58.82498 | 31412 ft | 430 kts | 244° |
| 2026-05-06 13:52 | 38.16848 | 58.79119 | 30689 ft | 430 kts | 240° |
| 2026-05-06 13:53 | 38.15282 | 58.75895 | 29935 ft | 430 kts | 236° |
| 2026-05-06 13:53 | 38.13512 | 58.72812 | 28997 ft | 431 kts | 232° |
| 2026-05-06 13:53 | 38.11539 | 58.69929 | 28050 ft | 434 kts | 227° |
| 2026-05-06 13:53 | 38.09355 | 58.67275 | 27027 ft | 437 kts | 223° |
| 2026-05-06 13:54 | 38.06962 | 58.64868 | 25994 ft | 440 kts | 217° |
| 2026-05-06 13:54 | 38.04380 | 58.62743 | 24947 ft | 445 kts | 212° |
| 2026-05-06 13:54 | 38.01688 | 58.60816 | 24173 ft | 443 kts | 211° |
| 2026-05-06 13:54 | 37.98990 | 58.58977 | 23487 ft | 438 kts | 210° |
| 2026-05-06 13:55 | 37.96292 | 58.57224 | 22684 ft | 434 kts | 209° |
| 2026-05-06 13:55 | 37.93594 | 58.55547 | 21936 ft | 428 kts | 207° |
| 2026-05-06 13:55 | 37.90912 | 58.53949 | 21133 ft | 424 kts | 207° |
| 2026-05-06 13:55 | 37.88230 | 58.52420 | 20332 ft | 421 kts | 205° |
| 2026-05-06 13:56 | 37.85549 | 58.50972 | 19605 ft | 417 kts | 204° |
| 2026-05-06 13:56 | 37.82870 | 58.49609 | 18834 ft | 413 kts | 202° |
| 2026-05-06 13:56 | 37.80194 | 58.48326 | 18119 ft | 409 kts | 201° |
| 2026-05-06 13:56 | 37.77530 | 58.47116 | 17355 ft | 405 kts | 200° |
| 2026-05-06 13:57 | 37.74872 | 58.45996 | 16564 ft | 400 kts | 198° |
| 2026-05-06 13:57 | 37.72228 | 58.44968 | 15751 ft | 395 kts | 197° |
| 2026-05-06 13:57 | 37.69598 | 58.44026 | 14883 ft | 390 kts | 196° |
| 2026-05-06 13:57 | 37.66982 | 58.43144 | 14042 ft | 389 kts | 195° |
| 2026-05-06 13:58 | 37.64361 | 58.42326 | 13126 ft | 388 kts | 194° |
| 2026-05-06 13:58 | 37.61725 | 58.41604 | 12164 ft | 388 kts | 192° |
| 2026-05-06 13:58 | 37.59093 | 58.40946 | 11428 ft | 381 kts | 193° |
| 2026-05-06 13:58 | 37.56506 | 58.40308 | 10607 ft | 378 kts | 191° |
| 2026-05-06 13:59 | 37.53928 | 58.39718 | 9766 ft | 375 kts | 191° |
| 2026-05-06 13:59 | 37.51392 | 58.39226 | 8839 ft | 373 kts | 189° |
| 2026-05-06 13:59 | 37.48821 | 58.38828 | 7885 ft | 372 kts | 187° |
| 2026-05-06 13:59 | 37.46257 | 58.38516 | 7229 ft | 364 kts | 186° |
| 2026-05-06 14:00 | 37.45256 | 58.38324 | 7732 ft | 134 kts | 197° |
| 2026-05-06 14:00 | 37.44585 | 58.38144 | 7078 ft | 59 kts | 122° |
| 2026-05-06 14:00 | 37.44480 | 58.38069 | 7000 ft | 0 kts | 128° |
| 2026-05-06 14:07 | 37.44480 | 58.38068 | 7003 ft | 0 kts | 128° |